Search for airport 
image banner adimage banner adimage banner ad
image banner ad

PN53 - Strohmier

Located in Loretto, United States

ICAO - PN53, IATA -

Data provided by Airmate  

General information

Coordinates: N40°33'5" W78°37'24"
Elevation is 1962 feet MSL.
Magnetic variation is -09° East
View others Airports in Pennsylvania

Operational data

Special qualification required
Current time UTC:
Current local time:
METAR: KJST 071354Z AUTO 16006KT 10SM BKN042 OVC049 08/01 A2984 RMK AO2 SLP113 T00830011
TAF: KJST 071127Z 0712/0812 18007KT P6SM BKN035 OVC100 FM071300 20005KT P6SM -RA BKN035 OVC070 FM071700 27008KT 4SM -RA BR OVC015 FM080000 28007KT P6SM BKN035 FM080800 29008G15KT 5SM -SHRA OVC009
View NOTAMs / SUP AIP / TFR affecting this airport [VIEW]
Communications frequencies: [VIEW]

Runways:

RWY identifierQFULength (ft)Width (ft)SurfaceLDA (ft)
05120050GRASS
23120050GRASS
15155050GRASS
33155050GRASS

Airport contact information

Address: Loretto United States

Satellite view of PN53